METAR Data
IDs: Format: Raw Decoded Include TAF

Data at: 1135 UTC 21 Nov 2018

KLBX 211053Z AUTO 03008KT 10SM CLR 08/06 A3027 RMK AO2 SLP249 T00780061
KLBX 210953Z AUTO 03006KT 10SM CLR 07/06 A3028 RMK AO2 SLP253 T00670061
KLBX 210853Z AUTO 02005KT 9SM CLR 04/04 A3030 RMK AO2 SLP260 T00390039 58003
KLBX 210753Z AUTO 36003KT 5SM BR CLR 05/04 A3031 RMK AO2 SLP263 T00500044
KLBX 210745Z AUTO 00000KT 4SM BR CLR 05/04 A3031 RMK AO2 T00500044
KLBX 210738Z AUTO 00000KT 1 3/4SM BR CLR 05/04 A3031 RMK AO2 T00500044
KLBX 210653Z AUTO 00000KT 7SM CLR 06/06 A3031 RMK AO2 SLP263 T00610056
KLBX 210553Z AUTO 05003KT 10SM CLR 08/06 A3031 RMK AO2 SLP263 T00830061 10106 20067 401780067 50001
KLBX 210453Z AUTO 03004KT 10SM CLR 08/06 A3031 RMK AO2 SLP263 T00830061
KLBX 210353Z AUTO 02003KT 10SM CLR 08/06 A3031 RMK AO2 SLP263 T00830061
KLBX 210253Z AUTO 01004KT 10SM CLR 08/07 A3031 RMK AO2 SLP262 T00780067 51015
KLBX 210153Z AUTO 00000KT 10SM CLR 08/07 A3031 RMK AO2 SLP262 T00830072
KLBX 210053Z AUTO 00000KT 10SM CLR 09/07 A3028 RMK AO2 SLP253 T00940072
KLBX 202353Z AUTO 36004KT 10SM CLR 11/07 A3026 RMK AO2 SLP247 T01110072 10178 20111 53008
KLBX 202253Z AUTO 01006KT 10SM CLR 15/06 A3025 RMK AO2 SLP244 T01500061
KLBX 202153Z AUTO 01007KT 10SM CLR 17/06 A3024 RMK AO2 SLP239 T01720056
KLBX 202053Z AUTO 03008KT 10SM CLR 17/06 A3024 RMK AO2 SLP239 T01720056 56017
KLBX 201953Z AUTO 36014KT 10SM CLR 17/06 A3024 RMK AO2 SLP240 T01720056
KLBX 201853Z AUTO 02010G17KT 10SM CLR 16/06 A3027 RMK AO2 SLP249 T01610061
KLBX 201753Z AUTO 01012KT 10SM CLR 15/07 A3029 RMK AO2 SLP257 T01500067 10150 20083 58005
KLBX 201653Z AUTO 02009KT 10SM CLR 14/06 A3031 RMK AO2 SLP263 T01390061
KLBX 201553Z AUTO 03011KT 10SM CLR 13/06 A3031 RMK AO2 SLP264 T01280061
KLBX 201453Z AUTO 02009KT 10SM CLR 11/06 A3031 RMK AO2 SLP262 T01060061 51028
KLBX 201353Z AUTO 01009KT 10SM CLR 09/06 A3028 RMK AO2 SLP253 T00890061
KLBX 201253Z AUTO 01008KT 10SM CLR 08/06 A3025 RMK AO2 SLP244 T00830061
KLBX 201153Z AUTO 01010KT 10SM FEW065 09/06 A3022 RMK AO2 SLP234 70020 T00890061 10106 20089 51012
KLBX 201053Z AUTO 01013KT 10SM FEW055 OVC070 10/07 A3021 RMK AO2 SLP229 T01000067
KLBX 200953Z AUTO 02010KT 10SM FEW055 SCT070 09/07 A3021 RMK AO2 SLP229 T00940067
KLBX 200853Z AUTO 01015KT 10SM BKN055 BKN070 10/07 A3019 RMK AO2 SLP223 T01000067 53001
KLBX 200753Z AUTO 01013KT 10SM OVC055 11/07 A3019 RMK AO2 SLP221 T01060072
KLBX 200726Z AUTO 01013KT 10SM SCT024 OVC055 11/08 A3019 RMK AO2 T01060078
KLBX 200653Z AUTO 36012G19KT 10SM OVC021 11/09 A3019 RMK AO2 SLP222 T01060089
KLBX 200635Z AUTO 36009KT 10SM OVC016 11/09 A3020 RMK AO2 T01060094
KLBX 200553Z AUTO 36012KT 10SM OVC012 11/09 A3019 RMK AO2 SLP221 60000 T01060089 10111 20106 401170089 51007
KLBX 200453Z AUTO 36009KT 10SM OVC011 11/09 A3018 RMK AO2 SLP218 T01110094
KLBX 200410Z AUTO 01011KT 10SM OVC010 11/09 A3018 RMK AO2 T01110094
KLBX 200353Z AUTO 36009KT 10SM OVC009 11/10 A3018 RMK AO2 SLP218 T01110100
KLBX 200253Z AUTO 36011KT 10SM OVC008 11/10 A3017 RMK AO2 SLP214 60000 T01110100 53014
KLBX 200153Z AUTO 36009KT 10SM OVC008 11/10 A3015 RMK AO2 SLP208 T01110100
KLBX 200053Z AUTO 36006KT 9SM OVC006 11/11 A3014 RMK AO2 RAB2355E04 SLP204 P0000 T01110106
KLBX 192353Z AUTO 01010KT 10SM OVC006 11/10 A3012 RMK AO2 SLP200 60000 T01060100 10111 20100 53009